sensor_id;sensor_type;location;lat;lon;timestamp;temperature;humidity
11569;DHT22;5840;46.894;15.542;2023-05-29T00:02:02;16.70;99.10
11569;DHT22;5840;46.894;15.542;2023-05-29T00:04:29;16.70;98.80
11569;DHT22;5840;46.894;15.542;2023-05-29T00:06:56;16.60;99.00
11569;DHT22;5840;46.894;15.542;2023-05-29T00:09:22;16.60;99.90
11569;DHT22;5840;46.894;15.542;2023-05-29T00:11:50;16.60;99.90
11569;DHT22;5840;46.894;15.542;2023-05-29T00:14:20;16.50;99.90
11569;DHT22;5840;46.894;15.542;2023-05-29T00:16:48;16.40;99.90
11569;DHT22;5840;46.894;15.542;2023-05-29T00:19:15;16.40;99.90
11569;DHT22;5840;46.894;15.542;2023-05-29T00:21:43;16.40;99.90
11569;DHT22;5840;46.894;15.542;2023-05-29T00:24:13;16.40;99.90
11569;DHT22;5840;46.894;15.542;2023-05-29T00:26:40;16.30;99.90
11569;DHT22;5840;46.894;15.542;2023-05-29T00:29:07;16.40;99.90
11569;DHT22;5840;46.894;15.542;2023-05-29T00:31:35;16.40;99.90
11569;DHT22;5840;46.894;15.542;2023-05-29T00:34:02;16.40;99.90
11569;DHT22;5840;46.894;15.542;2023-05-29T00:36:29;16.30;99.90
11569;DHT22;5840;46.894;15.542;2023-05-29T00:38:57;16.30;99.90
11569;DHT22;5840;46.894;15.542;2023-05-29T00:41:24;16.30;99.90
11569;DHT22;5840;46.894;15.542;2023-05-29T00:43:51;16.30;99.90
11569;DHT22;5840;46.894;15.542;2023-05-29T00:46:18;16.30;99.90
11569;DHT22;5840;46.894;15.542;2023-05-29T00:48:47;16.30;99.90
11569;DHT22;5840;46.894;15.542;2023-05-29T00:51:16;16.30;99.90
11569;DHT22;5840;46.894;15.542;2023-05-29T00:53:44;16.30;99.90
11569;DHT22;5840;46.894;15.542;2023-05-29T00:56:12;16.30;99.90
11569;DHT22;5840;46.894;15.542;2023-05-29T00:58:40;16.30;99.90
11569;DHT22;5840;46.894;15.542;2023-05-29T01:01:08;16.20;99.90
11569;DHT22;5840;46.894;15.542;2023-05-29T01:03:35;16.30;99.90
11569;DHT22;5840;46.894;15.542;2023-05-29T01:06:04;16.30;99.90
11569;DHT22;5840;46.894;15.542;2023-05-29T01:08:31;16.30;99.90
11569;DHT22;5840;46.894;15.542;2023-05-29T01:11:03;16.30;99.90
11569;DHT22;5840;46.894;15.542;2023-05-29T01:13:35;16.30;99.90
11569;DHT22;5840;46.894;15.542;2023-05-29T01:16:08;16.20;99.90
11569;DHT22;5840;46.894;15.542;2023-05-29T01:18:41;16.20;99.90
11569;DHT22;5840;46.894;15.542;2023-05-29T01:21:18;16.20;99.90
11569;DHT22;5840;46.894;15.542;2023-05-29T01:24:08;16.20;99.90
11569;DHT22;5840;46.894;15.542;2023-05-29T01:26:47;16.10;99.90
11569;DHT22;5840;46.894;15.542;2023-05-29T01:29:18;16.10;99.90
11569;DHT22;5840;46.894;15.542;2023-05-29T01:31:46;16.10;99.90
11569;DHT22;5840;46.894;15.542;2023-05-29T01:34:14;16.00;99.90
11569;DHT22;5840;46.894;15.542;2023-05-29T01:36:41;16.00;99.90
11569;DHT22;5840;46.894;15.542;2023-05-29T01:39:08;15.90;99.90
11569;DHT22;5840;46.894;15.542;2023-05-29T01:41:36;15.90;99.90
11569;DHT22;5840;46.894;15.542;2023-05-29T01:44:06;15.80;99.90
11569;DHT22;5840;46.894;15.542;2023-05-29T01:46:36;15.80;99.90
11569;DHT22;5840;46.894;15.542;2023-05-29T01:49:04;15.80;99.90
11569;DHT22;5840;46.894;15.542;2023-05-29T01:51:31;15.80;99.90
11569;DHT22;5840;46.894;15.542;2023-05-29T01:53:59;15.70;99.90
11569;DHT22;5840;46.894;15.542;2023-05-29T01:56:27;15.60;99.90
11569;DHT22;5840;46.894;15.542;2023-05-29T01:58:54;15.60;99.90
11569;DHT22;5840;46.894;15.542;2023-05-29T02:01:23;15.50;99.90
11569;DHT22;5840;46.894;15.542;2023-05-29T02:03:50;15.50;99.90
11569;DHT22;5840;46.894;15.542;2023-05-29T02:06:17;15.40;99.90
11569;DHT22;5840;46.894;15.542;2023-05-29T02:08:44;15.40;99.90
11569;DHT22;5840;46.894;15.542;2023-05-29T02:11:11;15.40;99.90
11569;DHT22;5840;46.894;15.542;2023-05-29T02:13:38;15.40;99.90
11569;DHT22;5840;46.894;15.542;2023-05-29T02:16:05;15.40;99.90
11569;DHT22;5840;46.894;15.542;2023-05-29T02:18:34;15.40;99.90
11569;DHT22;5840;46.894;15.542;2023-05-29T02:21:01;15.40;99.90
11569;DHT22;5840;46.894;15.542;2023-05-29T02:23:28;15.30;99.90
11569;DHT22;5840;46.894;15.542;2023-05-29T02:25:55;15.30;99.90
11569;DHT22;5840;46.894;15.542;2023-05-29T02:28:22;15.20;99.90
11569;DHT22;5840;46.894;15.542;2023-05-29T02:30:49;15.20;99.90
11569;DHT22;5840;46.894;15.542;2023-05-29T02:33:16;15.20;99.90
11569;DHT22;5840;46.894;15.542;2023-05-29T02:35:44;15.20;99.90
11569;DHT22;5840;46.894;15.542;2023-05-29T02:38:11;15.10;99.90
11569;DHT22;5840;46.894;15.542;2023-05-29T02:40:39;15.10;99.90
11569;DHT22;5840;46.894;15.542;2023-05-29T02:43:06;15.10;99.90
11569;DHT22;5840;46.894;15.542;2023-05-29T02:45:33;15.00;99.90
11569;DHT22;5840;46.894;15.542;2023-05-29T02:48:00;15.00;99.90
11569;DHT22;5840;46.894;15.542;2023-05-29T02:50:26;14.90;99.90
11569;DHT22;5840;46.894;15.542;2023-05-29T02:52:55;14.90;99.90
11569;DHT22;5840;46.894;15.542;2023-05-29T02:55:22;14.80;99.90
11569;DHT22;5840;46.894;15.542;2023-05-29T02:57:49;14.80;99.90
11569;DHT22;5840;46.894;15.542;2023-05-29T03:00:18;14.70;99.90
11569;DHT22;5840;46.894;15.542;2023-05-29T03:02:46;14.70;99.90
11569;DHT22;5840;46.894;15.542;2023-05-29T03:05:13;14.70;99.90
11569;DHT22;5840;46.894;15.542;2023-05-29T03:07:41;14.70;99.90
11569;DHT22;5840;46.894;15.542;2023-05-29T03:10:10;14.70;99.90
11569;DHT22;5840;46.894;15.542;2023-05-29T03:12:37;14.70;99.90
11569;DHT22;5840;46.894;15.542;2023-05-29T03:15:05;14.60;99.90
11569;DHT22;5840;46.894;15.542;2023-05-29T03:17:33;14.60;99.90
11569;DHT22;5840;46.894;15.542;2023-05-29T03:20:02;14.60;99.90
11569;DHT22;5840;46.894;15.542;2023-05-29T03:22:33;14.60;99.90
11569;DHT22;5840;46.894;15.542;2023-05-29T03:25:02;14.60;99.90
11569;DHT22;5840;46.894;15.542;2023-05-29T03:27:30;14.60;99.90
11569;DHT22;5840;46.894;15.542;2023-05-29T03:29:58;14.60;99.90
11569;DHT22;5840;46.894;15.542;2023-05-29T03:32:25;14.60;99.90
11569;DHT22;5840;46.894;15.542;2023-05-29T03:34:52;14.50;99.90
11569;DHT22;5840;46.894;15.542;2023-05-29T03:37:19;14.50;99.90
11569;DHT22;5840;46.894;15.542;2023-05-29T03:39:46;14.50;99.90
11569;DHT22;5840;46.894;15.542;2023-05-29T03:42:13;14.50;99.90
11569;DHT22;5840;46.894;15.542;2023-05-29T03:44:41;14.50;99.90
11569;DHT22;5840;46.894;15.542;2023-05-29T03:47:08;14.50;99.90
11569;DHT22;5840;46.894;15.542;2023-05-29T03:49:35;14.50;99.90
11569;DHT22;5840;46.894;15.542;2023-05-29T03:52:02;14.50;99.90
11569;DHT22;5840;46.894;15.542;2023-05-29T03:54:29;14.50;99.90
11569;DHT22;5840;46.894;15.542;2023-05-29T03:56:56;14.50;99.90
11569;DHT22;5840;46.894;15.542;2023-05-29T03:59:23;14.60;99.90
11569;DHT22;5840;46.894;15.542;2023-05-29T04:01:51;14.60;99.90
11569;DHT22;5840;46.894;15.542;2023-05-29T04:04:18;14.60;99.90
11569;DHT22;5840;46.894;15.542;2023-05-29T04:06:45;14.60;99.90
11569;DHT22;5840;46.894;15.542;2023-05-29T04:09:12;14.60;99.90
11569;DHT22;5840;46.894;15.542;2023-05-29T04:11:39;14.60;99.90
11569;DHT22;5840;46.894;15.542;2023-05-29T04:14:07;14.50;99.90
11569;DHT22;5840;46.894;15.542;2023-05-29T04:16:34;14.50;99.90
11569;DHT22;5840;46.894;15.542;2023-05-29T04:19:02;14.50;99.90
11569;DHT22;5840;46.894;15.542;2023-05-29T04:21:29;14.50;99.90
11569;DHT22;5840;46.894;15.542;2023-05-29T04:23:58;14.50;99.90
11569;DHT22;5840;46.894;15.542;2023-05-29T04:26:24;14.40;99.90
11569;DHT22;5840;46.894;15.542;2023-05-29T04:28:52;14.50;99.90
11569;DHT22;5840;46.894;15.542;2023-05-29T04:31:23;14.50;99.90
11569;DHT22;5840;46.894;15.542;2023-05-29T04:33:51;14.50;99.90
11569;DHT22;5840;46.894;15.542;2023-05-29T04:36:22;14.50;99.90
11569;DHT22;5840;46.894;15.542;2023-05-29T04:38:51;14.50;99.90
11569;DHT22;5840;46.894;15.542;2023-05-29T04:41:18;14.60;99.90
11569;DHT22;5840;46.894;15.542;2023-05-29T04:43:49;14.60;99.90
11569;DHT22;5840;46.894;15.542;2023-05-29T04:46:16;14.60;99.90
11569;DHT22;5840;46.894;15.542;2023-05-29T04:48:43;14.60;99.90
11569;DHT22;5840;46.894;15.542;2023-05-29T04:51:10;14.60;99.90
11569;DHT22;5840;46.894;15.542;2023-05-29T04:53:39;14.70;99.90
11569;DHT22;5840;46.894;15.542;2023-05-29T04:56:06;14.70;99.90
11569;DHT22;5840;46.894;15.542;2023-05-29T04:58:33;14.80;99.90
11569;DHT22;5840;46.894;15.542;2023-05-29T05:01:00;14.80;99.90
11569;DHT22;5840;46.894;15.542;2023-05-29T05:03:29;14.90;99.90
11569;DHT22;5840;46.894;15.542;2023-05-29T05:05:59;14.90;99.90
11569;DHT22;5840;46.894;15.542;2023-05-29T05:08:27;15.00;99.90
11569;DHT22;5840;46.894;15.542;2023-05-29T05:10:56;15.00;99.90
11569;DHT22;5840;46.894;15.542;2023-05-29T05:13:23;15.10;99.90
11569;DHT22;5840;46.894;15.542;2023-05-29T05:15:50;15.20;99.90
11569;DHT22;5840;46.894;15.542;2023-05-29T05:18:17;15.30;99.90
11569;DHT22;5840;46.894;15.542;2023-05-29T05:20:44;15.40;99.90
11569;DHT22;5840;46.894;15.542;2023-05-29T05:23:11;15.50;99.90
11569;DHT22;5840;46.894;15.542;2023-05-29T05:25:38;15.50;99.90
11569;DHT22;5840;46.894;15.542;2023-05-29T05:28:08;15.70;99.90
11569;DHT22;5840;46.894;15.542;2023-05-29T05:30:35;15.80;99.90
11569;DHT22;5840;46.894;15.542;2023-05-29T05:33:02;15.90;99.90
11569;DHT22;5840;46.894;15.542;2023-05-29T05:35:29;16.00;99.90
11569;DHT22;5840;46.894;15.542;2023-05-29T05:37:56;16.10;99.90
11569;DHT22;5840;46.894;15.542;2023-05-29T05:40:24;16.20;99.90
11569;DHT22;5840;46.894;15.542;2023-05-29T05:42:51;16.20;99.90
11569;DHT22;5840;46.894;15.542;2023-05-29T05:45:20;16.30;99.90
11569;DHT22;5840;46.894;15.542;2023-05-29T05:47:46;16.30;99.90
11569;DHT22;5840;46.894;15.542;2023-05-29T05:50:13;16.40;99.90
11569;DHT22;5840;46.894;15.542;2023-05-29T05:52:40;16.50;99.90
11569;DHT22;5840;46.894;15.542;2023-05-29T05:55:08;16.60;99.90
11569;DHT22;5840;46.894;15.542;2023-05-29T05:57:35;16.60;99.90
11569;DHT22;5840;46.894;15.542;2023-05-29T06:00:02;16.70;99.90
11569;DHT22;5840;46.894;15.542;2023-05-29T06:02:33;16.80;99.90
11569;DHT22;5840;46.894;15.542;2023-05-29T06:05:00;17.00;99.90
11569;DHT22;5840;46.894;15.542;2023-05-29T06:07:27;17.10;99.90
11569;DHT22;5840;46.894;15.542;2023-05-29T06:09:54;17.20;99.90
11569;DHT22;5840;46.894;15.542;2023-05-29T06:12:21;17.30;99.90
11569;DHT22;5840;46.894;15.542;2023-05-29T06:14:48;17.40;99.90
11569;DHT22;5840;46.894;15.542;2023-05-29T06:17:15;17.50;99.90
11569;DHT22;5840;46.894;15.542;2023-05-29T06:19:43;17.70;99.90
11569;DHT22;5840;46.894;15.542;2023-05-29T06:22:10;17.90;99.90
11569;DHT22;5840;46.894;15.542;2023-05-29T06:24:37;18.00;99.90
11569;DHT22;5840;46.894;15.542;2023-05-29T06:27:04;18.20;99.90
11569;DHT22;5840;46.894;15.542;2023-05-29T06:29:32;18.20;99.90
11569;DHT22;5840;46.894;15.542;2023-05-29T06:31:58;18.20;99.90
11569;DHT22;5840;46.894;15.542;2023-05-29T06:34:25;18.30;99.90
11569;DHT22;5840;46.894;15.542;2023-05-29T06:36:54;18.40;99.90
11569;DHT22;5840;46.894;15.542;2023-05-29T06:39:21;18.60;99.90
11569;DHT22;5840;46.894;15.542;2023-05-29T06:41:47;18.70;99.90
11569;DHT22;5840;46.894;15.542;2023-05-29T06:44:15;18.90;99.90
11569;DHT22;5840;46.894;15.542;2023-05-29T06:46:42;19.00;99.90
11569;DHT22;5840;46.894;15.542;2023-05-29T06:49:09;19.10;99.90
11569;DHT22;5840;46.894;15.542;2023-05-29T06:51:35;19.30;99.90
11569;DHT22;5840;46.894;15.542;2023-05-29T06:54:04;19.50;99.90
11569;DHT22;5840;46.894;15.542;2023-05-29T06:56:32;19.70;99.90
11569;DHT22;5840;46.894;15.542;2023-05-29T06:58:58;19.90;99.90
11569;DHT22;5840;46.894;15.542;2023-05-29T07:01:26;20.20;99.90
11569;DHT22;5840;46.894;15.542;2023-05-29T07:03:53;20.50;99.90
11569;DHT22;5840;46.894;15.542;2023-05-29T07:06:20;20.60;99.90
11569;DHT22;5840;46.894;15.542;2023-05-29T07:08:47;20.80;99.90
11569;DHT22;5840;46.894;15.542;2023-05-29T07:11:15;20.90;99.90
11569;DHT22;5840;46.894;15.542;2023-05-29T07:13:42;21.00;99.90
11569;DHT22;5840;46.894;15.542;2023-05-29T07:16:09;21.10;99.90
11569;DHT22;5840;46.894;15.542;2023-05-29T07:18:36;21.00;99.90
11569;DHT22;5840;46.894;15.542;2023-05-29T07:21:02;21.10;99.90
11569;DHT22;5840;46.894;15.542;2023-05-29T07:23:29;21.10;99.90
11569;DHT22;5840;46.894;15.542;2023-05-29T07:25:56;21.20;99.90
11569;DHT22;5840;46.894;15.542;2023-05-29T07:28:25;21.30;99.90
11569;DHT22;5840;46.894;15.542;2023-05-29T07:30:51;21.40;99.90
11569;DHT22;5840;46.894;15.542;2023-05-29T07:33:18;21.50;99.90
11569;DHT22;5840;46.894;15.542;2023-05-29T07:35:46;21.60;99.90
11569;DHT22;5840;46.894;15.542;2023-05-29T07:38:12;21.80;99.90
11569;DHT22;5840;46.894;15.542;2023-05-29T07:40:39;22.00;99.90
11569;DHT22;5840;46.894;15.542;2023-05-29T07:43:06;22.10;99.90
11569;DHT22;5840;46.894;15.542;2023-05-29T07:45:34;22.20;99.90
11569;DHT22;5840;46.894;15.542;2023-05-29T07:48:01;22.40;99.90
11569;DHT22;5840;46.894;15.542;2023-05-29T07:50:28;22.40;98.90
11569;DHT22;5840;46.894;15.542;2023-05-29T07:52:55;22.50;99.90
11569;DHT22;5840;46.894;15.542;2023-05-29T07:55:22;22.60;99.90
11569;DHT22;5840;46.894;15.542;2023-05-29T07:57:49;22.80;99.90
11569;DHT22;5840;46.894;15.542;2023-05-29T08:00:16;23.00;99.00
11569;DHT22;5840;46.894;15.542;2023-05-29T08:02:45;23.20;99.30
11569;DHT22;5840;46.894;15.542;2023-05-29T08:05:12;23.30;96.20
11569;DHT22;5840;46.894;15.542;2023-05-29T08:07:39;23.40;98.80
11569;DHT22;5840;46.894;15.542;2023-05-29T08:10:07;23.50;97.90
11569;DHT22;5840;46.894;15.542;2023-05-29T08:12:34;23.60;96.80
11569;DHT22;5840;46.894;15.542;2023-05-29T08:15:01;23.80;97.20
11569;DHT22;5840;46.894;15.542;2023-05-29T08:17:28;23.70;93.50
11569;DHT22;5840;46.894;15.542;2023-05-29T08:19:56;23.80;94.20
11569;DHT22;5840;46.894;15.542;2023-05-29T08:22:28;24.10;93.40
11569;DHT22;5840;46.894;15.542;2023-05-29T08:24:55;24.20;91.70
11569;DHT22;5840;46.894;15.542;2023-05-29T08:27:22;24.30;91.40
11569;DHT22;5840;46.894;15.542;2023-05-29T08:29:49;24.50;90.30
11569;DHT22;5840;46.894;15.542;2023-05-29T08:32:16;24.60;91.20
11569;DHT22;5840;46.894;15.542;2023-05-29T08:34:43;24.80;89.30
11569;DHT22;5840;46.894;15.542;2023-05-29T08:37:12;24.90;89.00
11569;DHT22;5840;46.894;15.542;2023-05-29T08:39:39;25.10;91.80
11569;DHT22;5840;46.894;15.542;2023-05-29T08:42:08;25.10;91.20
11569;DHT22;5840;46.894;15.542;2023-05-29T08:44:39;25.30;91.80
11569;DHT22;5840;46.894;15.542;2023-05-29T08:47:07;25.50;90.90
11569;DHT22;5840;46.894;15.542;2023-05-29T08:49:40;25.50;88.90
11569;DHT22;5840;46.894;15.542;2023-05-29T08:52:11;25.60;87.40
11569;DHT22;5840;46.894;15.542;2023-05-29T08:54:40;25.60;92.50
11569;DHT22;5840;46.894;15.542;2023-05-29T08:57:07;25.70;85.20
11569;DHT22;5840;46.894;15.542;2023-05-29T08:59:35;25.50;85.30
11569;DHT22;5840;46.894;15.542;2023-05-29T09:02:03;25.60;81.00
11569;DHT22;5840;46.894;15.542;2023-05-29T09:04:31;25.70;85.00
11569;DHT22;5840;46.894;15.542;2023-05-29T09:06:58;25.80;83.00
11569;DHT22;5840;46.894;15.542;2023-05-29T09:09:26;25.70;79.10
11569;DHT22;5840;46.894;15.542;2023-05-29T09:11:56;25.50;82.20
11569;DHT22;5840;46.894;15.542;2023-05-29T09:14:32;25.50;82.80
11569;DHT22;5840;46.894;15.542;2023-05-29T09:17:02;25.60;86.20
11569;DHT22;5840;46.894;15.542;2023-05-29T09:19:32;25.70;84.40
11569;DHT22;5840;46.894;15.542;2023-05-29T09:22:04;26.00;81.30
11569;DHT22;5840;46.894;15.542;2023-05-29T09:24:35;26.20;78.50
11569;DHT22;5840;46.894;15.542;2023-05-29T09:27:06;26.30;76.90
11569;DHT22;5840;46.894;15.542;2023-05-29T09:29:39;26.30;75.20
11569;DHT22;5840;46.894;15.542;2023-05-29T09:32:07;26.20;77.60
11569;DHT22;5840;46.894;15.542;2023-05-29T09:34:35;26.30;84.00
11569;DHT22;5840;46.894;15.542;2023-05-29T09:37:03;26.30;81.60
11569;DHT22;5840;46.894;15.542;2023-05-29T09:39:37;26.30;78.40
11569;DHT22;5840;46.894;15.542;2023-05-29T09:42:12;26.20;82.90
11569;DHT22;5840;46.894;15.542;2023-05-29T09:44:40;26.20;80.00
11569;DHT22;5840;46.894;15.542;2023-05-29T09:47:07;26.40;83.20
11569;DHT22;5840;46.894;15.542;2023-05-29T09:49:34;26.30;83.10
11569;DHT22;5840;46.894;15.542;2023-05-29T09:52:04;26.50;85.20
11569;DHT22;5840;46.894;15.542;2023-05-29T09:54:35;26.80;81.60
11569;DHT22;5840;46.894;15.542;2023-05-29T09:57:03;27.10;77.70
11569;DHT22;5840;46.894;15.542;2023-05-29T09:59:33;27.30;80.20
11569;DHT22;5840;46.894;15.542;2023-05-29T10:02:02;27.50;79.40
11569;DHT22;5840;46.894;15.542;2023-05-29T10:04:31;27.80;82.30
11569;DHT22;5840;46.894;15.542;2023-05-29T10:07:02;27.80;70.50
11569;DHT22;5840;46.894;15.542;2023-05-29T10:09:31;27.80;77.20
11569;DHT22;5840;46.894;15.542;2023-05-29T10:12:01;28.00;74.80
11569;DHT22;5840;46.894;15.542;2023-05-29T10:14:32;28.10;76.10
11569;DHT22;5840;46.894;15.542;2023-05-29T10:17:02;28.30;78.70
11569;DHT22;5840;46.894;15.542;2023-05-29T10:19:32;28.20;71.30
11569;DHT22;5840;46.894;15.542;2023-05-29T10:22:01;27.70;68.90
11569;DHT22;5840;46.894;15.542;2023-05-29T10:24:30;27.60;71.90
11569;DHT22;5840;46.894;15.542;2023-05-29T10:26:58;27.40;70.50
11569;DHT22;5840;46.894;15.542;2023-05-29T10:29:29;27.50;76.30
11569;DHT22;5840;46.894;15.542;2023-05-29T10:32:20;27.70;75.60
11569;DHT22;5840;46.894;15.542;2023-05-29T10:34:54;27.70;76.20
11569;DHT22;5840;46.894;15.542;2023-05-29T10:37:32;27.60;75.50
11569;DHT22;5840;46.894;15.542;2023-05-29T10:40:04;27.80;80.50
11569;DHT22;5840;46.894;15.542;2023-05-29T10:42:47;27.90;73.80
11569;DHT22;5840;46.894;15.542;2023-05-29T10:45:48;27.90;75.80
11569;DHT22;5840;46.894;15.542;2023-05-29T10:48:37;27.70;69.60
11569;DHT22;5840;46.894;15.542;2023-05-29T10:51:07;27.60;73.10
11569;DHT22;5840;46.894;15.542;2023-05-29T10:53:34;27.60;77.30
11569;DHT22;5840;46.894;15.542;2023-05-29T10:56:08;27.70;75.00
11569;DHT22;5840;46.894;15.542;2023-05-29T10:58:37;27.80;72.20
11569;DHT22;5840;46.894;15.542;2023-05-29T11:01:08;27.70;66.00
11569;DHT22;5840;46.894;15.542;2023-05-29T11:03:35;27.40;67.00
11569;DHT22;5840;46.894;15.542;2023-05-29T11:06:05;27.00;69.00
11569;DHT22;5840;46.894;15.542;2023-05-29T11:08:34;26.50;75.80
11569;DHT22;5840;46.894;15.542;2023-05-29T11:11:02;26.30;77.40
11569;DHT22;5840;46.894;15.542;2023-05-29T11:13:33;26.20;76.10
11569;DHT22;5840;46.894;15.542;2023-05-29T11:16:12;26.50;74.70
11569;DHT22;5840;46.894;15.542;2023-05-29T11:18:44;26.80;76.20
11569;DHT22;5840;46.894;15.542;2023-05-29T11:21:31;27.10;75.80
11569;DHT22;5840;46.894;15.542;2023-05-29T11:24:00;27.40;74.10
11569;DHT22;5840;46.894;15.542;2023-05-29T11:26:30;27.70;81.70
11569;DHT22;5840;46.894;15.542;2023-05-29T11:28:59;27.90;70.80
11569;DHT22;5840;46.894;15.542;2023-05-29T11:31:27;28.10;69.40
11569;DHT22;5840;46.894;15.542;2023-05-29T11:33:59;28.40;72.50
11569;DHT22;5840;46.894;15.542;2023-05-29T11:36:30;28.50;73.70
11569;DHT22;5840;46.894;15.542;2023-05-29T11:38:58;28.50;68.00
11569;DHT22;5840;46.894;15.542;2023-05-29T11:41:25;28.60;72.50
11569;DHT22;5840;46.894;15.542;2023-05-29T11:43:59;28.70;69.40
11569;DHT22;5840;46.894;15.542;2023-05-29T11:46:27;28.70;66.30
11569;DHT22;5840;46.894;15.542;2023-05-29T11:48:56;28.90;69.10
11569;DHT22;5840;46.894;15.542;2023-05-29T11:51:23;28.90;68.30
11569;DHT22;5840;46.894;15.542;2023-05-29T11:53:52;29.20;68.00
11569;DHT22;5840;46.894;15.542;2023-05-29T11:56:23;28.90;67.20
11569;DHT22;5840;46.894;15.542;2023-05-29T11:58:51;28.80;67.70
11569;DHT22;5840;46.894;15.542;2023-05-29T12:01:21;28.80;68.70
11569;DHT22;5840;46.894;15.542;2023-05-29T12:03:49;28.60;66.80
11569;DHT22;5840;46.894;15.542;2023-05-29T12:06:16;28.60;67.60
11569;DHT22;5840;46.894;15.542;2023-05-29T12:08:58;28.60;63.10
11569;DHT22;5840;46.894;15.542;2023-05-29T12:11:26;28.60;67.80
11569;DHT22;5840;46.894;15.542;2023-05-29T12:13:58;28.60;64.40
11569;DHT22;5840;46.894;15.542;2023-05-29T12:16:25;28.60;62.00
11569;DHT22;5840;46.894;15.542;2023-05-29T12:18:53;28.60;62.60
11569;DHT22;5840;46.894;15.542;2023-05-29T12:21:21;28.70;59.70
11569;DHT22;5840;46.894;15.542;2023-05-29T12:23:52;28.90;62.50
11569;DHT22;5840;46.894;15.542;2023-05-29T12:26:23;28.60;58.00
11569;DHT22;5840;46.894;15.542;2023-05-29T12:28:51;28.50;60.10
11569;DHT22;5840;46.894;15.542;2023-05-29T12:31:28;28.50;62.30
11569;DHT22;5840;46.894;15.542;2023-05-29T12:34:00;28.60;65.60
11569;DHT22;5840;46.894;15.542;2023-05-29T12:36:28;28.70;62.80
11569;DHT22;5840;46.894;15.542;2023-05-29T12:38:56;28.90;68.40
11569;DHT22;5840;46.894;15.542;2023-05-29T12:41:29;29.00;65.00
11569;DHT22;5840;46.894;15.542;2023-05-29T12:43:56;29.10;57.20
11569;DHT22;5840;46.894;15.542;2023-05-29T12:46:24;29.30;59.60
11569;DHT22;5840;46.894;15.542;2023-05-29T12:48:53;29.20;63.80
11569;DHT22;5840;46.894;15.542;2023-05-29T12:51:24;28.90;61.90
11569;DHT22;5840;46.894;15.542;2023-05-29T12:53:51;28.40;61.20
11569;DHT22;5840;46.894;15.542;2023-05-29T12:56:21;28.00;59.60
11569;DHT22;5840;46.894;15.542;2023-05-29T12:58:50;27.80;65.50
11569;DHT22;5840;46.894;15.542;2023-05-29T13:01:17;27.90;62.40
11569;DHT22;5840;46.894;15.542;2023-05-29T13:03:45;28.10;58.40
11569;DHT22;5840;46.894;15.542;2023-05-29T13:06:12;28.20;58.50
11569;DHT22;5840;46.894;15.542;2023-05-29T13:08:39;28.30;64.10
11569;DHT22;5840;46.894;15.542;2023-05-29T13:11:06;28.30;54.90
11569;DHT22;5840;46.894;15.542;2023-05-29T13:13:33;28.20;54.90
11569;DHT22;5840;46.894;15.542;2023-05-29T13:16:01;28.30;60.30
11569;DHT22;5840;46.894;15.542;2023-05-29T13:18:28;28.50;62.50
11569;DHT22;5840;46.894;15.542;2023-05-29T13:20:55;28.60;63.80
11569;DHT22;5840;46.894;15.542;2023-05-29T13:23:22;28.60;61.30
11569;DHT22;5840;46.894;15.542;2023-05-29T13:25:49;28.50;55.20
11569;DHT22;5840;46.894;15.542;2023-05-29T13:28:16;28.50;61.20
11569;DHT22;5840;46.894;15.542;2023-05-29T13:30:44;28.50;53.80
11569;DHT22;5840;46.894;15.542;2023-05-29T13:33:12;28.30;54.80
11569;DHT22;5840;46.894;15.542;2023-05-29T13:35:39;28.10;55.40
11569;DHT22;5840;46.894;15.542;2023-05-29T13:38:06;28.00;58.80
11569;DHT22;5840;46.894;15.542;2023-05-29T13:40:32;28.00;56.20
11569;DHT22;5840;46.894;15.542;2023-05-29T13:42:59;28.00;59.40
11569;DHT22;5840;46.894;15.542;2023-05-29T13:45:26;28.10;56.50
11569;DHT22;5840;46.894;15.542;2023-05-29T13:47:54;28.10;57.60
11569;DHT22;5840;46.894;15.542;2023-05-29T13:50:23;27.90;59.10
11569;DHT22;5840;46.894;15.542;2023-05-29T13:52:50;27.90;58.30
11569;DHT22;5840;46.894;15.542;2023-05-29T13:55:17;27.70;57.10
11569;DHT22;5840;46.894;15.542;2023-05-29T13:57:44;27.60;58.70
11569;DHT22;5840;46.894;15.542;2023-05-29T14:00:12;27.50;60.00
11569;DHT22;5840;46.894;15.542;2023-05-29T14:02:39;27.30;69.40
11569;DHT22;5840;46.894;15.542;2023-05-29T14:05:06;26.80;63.70
11569;DHT22;5840;46.894;15.542;2023-05-29T14:07:36;26.60;71.40
11569;DHT22;5840;46.894;15.542;2023-05-29T14:10:04;26.60;67.90
11569;DHT22;5840;46.894;15.542;2023-05-29T14:12:31;26.40;71.80
11569;DHT22;5840;46.894;15.542;2023-05-29T14:14:58;26.40;66.10
11569;DHT22;5840;46.894;15.542;2023-05-29T14:17:25;26.50;72.70
11569;DHT22;5840;46.894;15.542;2023-05-29T14:19:52;26.60;67.50
11569;DHT22;5840;46.894;15.542;2023-05-29T14:22:20;26.50;69.30
11569;DHT22;5840;46.894;15.542;2023-05-29T14:24:48;26.40;70.80
11569;DHT22;5840;46.894;15.542;2023-05-29T14:27:15;26.30;70.80
11569;DHT22;5840;46.894;15.542;2023-05-29T14:29:42;26.30;78.10
11569;DHT22;5840;46.894;15.542;2023-05-29T14:32:11;26.10;72.40
11569;DHT22;5840;46.894;15.542;2023-05-29T14:34:38;26.00;71.70
11569;DHT22;5840;46.894;15.542;2023-05-29T14:37:05;25.80;71.10
11569;DHT22;5840;46.894;15.542;2023-05-29T14:39:32;25.70;71.30
11569;DHT22;5840;46.894;15.542;2023-05-29T14:42:00;25.70;72.90
11569;DHT22;5840;46.894;15.542;2023-05-29T14:44:28;25.80;72.70
11569;DHT22;5840;46.894;15.542;2023-05-29T14:46:55;25.80;76.00
11569;DHT22;5840;46.894;15.542;2023-05-29T14:49:22;25.80;73.60
11569;DHT22;5840;46.894;15.542;2023-05-29T14:51:49;25.80;75.80
11569;DHT22;5840;46.894;15.542;2023-05-29T14:54:16;25.80;75.30
11569;DHT22;5840;46.894;15.542;2023-05-29T14:56:43;25.80;69.80
11569;DHT22;5840;46.894;15.542;2023-05-29T14:59:11;25.90;71.60
11569;DHT22;5840;46.894;15.542;2023-05-29T15:01:38;26.00;76.10
11569;DHT22;5840;46.894;15.542;2023-05-29T15:04:05;26.00;73.50
11569;DHT22;5840;46.894;15.542;2023-05-29T15:06:32;25.80;72.50
11569;DHT22;5840;46.894;15.542;2023-05-29T15:08:59;25.90;72.70
11569;DHT22;5840;46.894;15.542;2023-05-29T15:11:26;25.90;69.10
11569;DHT22;5840;46.894;15.542;2023-05-29T15:13:53;25.80;68.00
11569;DHT22;5840;46.894;15.542;2023-05-29T15:16:21;25.90;68.60
11569;DHT22;5840;46.894;15.542;2023-05-29T15:18:48;25.80;67.20
11569;DHT22;5840;46.894;15.542;2023-05-29T15:21:15;25.90;67.70
11569;DHT22;5840;46.894;15.542;2023-05-29T15:23:42;25.90;70.90
11569;DHT22;5840;46.894;15.542;2023-05-29T15:26:10;25.90;64.20
11569;DHT22;5840;46.894;15.542;2023-05-29T15:28:37;25.90;71.40
11569;DHT22;5840;46.894;15.542;2023-05-29T15:31:04;25.80;65.50
11569;DHT22;5840;46.894;15.542;2023-05-29T15:33:32;25.80;67.20
11569;DHT22;5840;46.894;15.542;2023-05-29T15:36:00;25.80;65.80
11569;DHT22;5840;46.894;15.542;2023-05-29T15:38:27;25.80;65.30